sensor_id;sensor_type;location;lat;lon;timestamp;pressure;altitude;pressure_sealevel;temperature
43802;BMP280;29429;51.074;13.764;2023-06-19T00:00:20;99800.78;;;18.31
43802;BMP280;29429;51.074;13.764;2023-06-19T00:02:49;99803.72;;;18.30
43802;BMP280;29429;51.074;13.764;2023-06-19T00:05:18;99795.06;;;18.27
43802;BMP280;29429;51.074;13.764;2023-06-19T00:07:45;99802.59;;;18.25
43802;BMP280;29429;51.074;13.764;2023-06-19T00:10:13;99805.81;;;18.22
43802;BMP280;29429;51.074;13.764;2023-06-19T00:12:40;99804.69;;;18.18
43802;BMP280;29429;51.074;13.764;2023-06-19T00:15:08;99796.28;;;18.15
43802;BMP280;29429;51.074;13.764;2023-06-19T00:17:37;99797.59;;;18.12
43802;BMP280;29429;51.074;13.764;2023-06-19T00:20:05;99790.56;;;18.11
43802;BMP280;29429;51.074;13.764;2023-06-19T00:22:33;99794.00;;;18.07
43802;BMP280;29429;51.074;13.764;2023-06-19T00:25:00;99799.91;;;18.04
43802;BMP280;29429;51.074;13.764;2023-06-19T00:27:27;99788.78;;;18.00
43802;BMP280;29429;51.074;13.764;2023-06-19T00:29:55;99796.34;;;17.98
43802;BMP280;29429;51.074;13.764;2023-06-19T00:32:29;99801.19;;;17.96
43802;BMP280;29429;51.074;13.764;2023-06-19T00:34:57;99796.28;;;17.93
43802;BMP280;29429;51.074;13.764;2023-06-19T00:37:25;99804.88;;;17.90
43802;BMP280;29429;51.074;13.764;2023-06-19T00:39:53;99799.97;;;17.87
43802;BMP280;29429;51.074;13.764;2023-06-19T00:42:20;99794.00;;;17.85
43802;BMP280;29429;51.074;13.764;2023-06-19T00:44:48;99797.81;;;17.84
43802;BMP280;29429;51.074;13.764;2023-06-19T00:47:15;99797.22;;;17.82
43802;BMP280;29429;51.074;13.764;2023-06-19T00:49:43;99793.72;;;17.82
43802;BMP280;29429;51.074;13.764;2023-06-19T00:52:10;99791.25;;;17.80
43802;BMP280;29429;51.074;13.764;2023-06-19T00:54:38;99792.63;;;17.83
43802;BMP280;29429;51.074;13.764;2023-06-19T00:57:05;99796.16;;;17.83
43802;BMP280;29429;51.074;13.764;2023-06-19T00:59:33;99789.19;;;17.87
43802;BMP280;29429;51.074;13.764;2023-06-19T01:02:02;99780.84;;;17.89
43802;BMP280;29429;51.074;13.764;2023-06-19T01:04:30;99784.38;;;17.89
43802;BMP280;29429;51.074;13.764;2023-06-19T01:07:05;99776.28;;;17.89
43802;BMP280;29429;51.074;13.764;2023-06-19T01:09:46;99778.38;;;17.87
43802;BMP280;29429;51.074;13.764;2023-06-19T01:12:19;99783.22;;;17.85
43802;BMP280;29429;51.074;13.764;2023-06-19T01:14:57;99780.53;;;17.85
43802;BMP280;29429;51.074;13.764;2023-06-19T01:17:29;99786.75;;;17.86
43802;BMP280;29429;51.074;13.764;2023-06-19T01:19:58;99787.56;;;17.86
43802;BMP280;29429;51.074;13.764;2023-06-19T01:22:27;99778.91;;;17.84
43802;BMP280;29429;51.074;13.764;2023-06-19T01:24:55;99778.09;;;17.84
43802;BMP280;29429;51.074;13.764;2023-06-19T01:27:23;99778.91;;;17.84
43802;BMP280;29429;51.074;13.764;2023-06-19T01:29:52;99768.63;;;17.81
43802;BMP280;29429;51.074;13.764;2023-06-19T01:32:25;99764.28;;;17.80
43802;BMP280;29429;51.074;13.764;2023-06-19T01:34:57;99769.34;;;17.77
43802;BMP280;29429;51.074;13.764;2023-06-19T01:37:26;99768.78;;;17.75
43802;BMP280;29429;51.074;13.764;2023-06-19T01:39:57;99770.38;;;17.71
43802;BMP280;29429;51.074;13.764;2023-06-19T01:42:27;99763.59;;;17.68
43802;BMP280;29429;51.074;13.764;2023-06-19T01:44:56;99766.22;;;17.63
43802;BMP280;29429;51.074;13.764;2023-06-19T01:47:23;99766.97;;;17.58
43802;BMP280;29429;51.074;13.764;2023-06-19T01:49:51;99760.44;;;17.54
43802;BMP280;29429;51.074;13.764;2023-06-19T01:52:18;99763.03;;;17.49
43802;BMP280;29429;51.074;13.764;2023-06-19T01:54:45;99760.03;;;17.46
43802;BMP280;29429;51.074;13.764;2023-06-19T01:57:14;99757.81;;;17.43
43802;BMP280;29429;51.074;13.764;2023-06-19T01:59:42;99755.31;;;17.36
43802;BMP280;29429;51.074;13.764;2023-06-19T02:02:09;99757.13;;;17.31
43802;BMP280;29429;51.074;13.764;2023-06-19T02:04:37;99752.44;;;17.26
43802;BMP280;29429;51.074;13.764;2023-06-19T02:07:05;99753.22;;;17.22
43802;BMP280;29429;51.074;13.764;2023-06-19T02:09:33;99753.13;;;17.17
43802;BMP280;29429;51.074;13.764;2023-06-19T02:12:00;99745.53;;;17.14
43802;BMP280;29429;51.074;13.764;2023-06-19T02:14:27;99735.50;;;17.09
43802;BMP280;29429;51.074;13.764;2023-06-19T02:16:55;99737.88;;;17.05
43802;BMP280;29429;51.074;13.764;2023-06-19T02:19:22;99737.56;;;17.02
43802;BMP280;29429;51.074;13.764;2023-06-19T02:21:49;99742.13;;;17.01
43802;BMP280;29429;51.074;13.764;2023-06-19T02:24:17;99740.50;;;17.00
43802;BMP280;29429;51.074;13.764;2023-06-19T02:26:44;99741.81;;;16.98
43802;BMP280;29429;51.074;13.764;2023-06-19T02:29:12;99738.28;;;16.97
43802;BMP280;29429;51.074;13.764;2023-06-19T02:31:39;99743.94;;;16.96
43802;BMP280;29429;51.074;13.764;2023-06-19T02:34:07;99740.97;;;16.97
43802;BMP280;29429;51.074;13.764;2023-06-19T02:36:36;99739.38;;;16.96
43802;BMP280;29429;51.074;13.764;2023-06-19T02:39:07;99738.78;;;16.94
43802;BMP280;29429;51.074;13.764;2023-06-19T02:41:35;99732.81;;;16.92
43802;BMP280;29429;51.074;13.764;2023-06-19T02:44:03;99738.47;;;16.91
43802;BMP280;29429;51.074;13.764;2023-06-19T02:46:30;99737.09;;;16.88
43802;BMP280;29429;51.074;13.764;2023-06-19T02:48:58;99733.81;;;16.86
43802;BMP280;29429;51.074;13.764;2023-06-19T02:51:25;99734.06;;;16.85
43802;BMP280;29429;51.074;13.764;2023-06-19T02:53:52;99732.66;;;16.82
43802;BMP280;29429;51.074;13.764;2023-06-19T02:56:24;99726.22;;;16.83
43802;BMP280;29429;51.074;13.764;2023-06-19T02:58:51;99731.38;;;16.85
43802;BMP280;29429;51.074;13.764;2023-06-19T03:01:19;99729.22;;;16.87
43802;BMP280;29429;51.074;13.764;2023-06-19T03:03:47;99731.69;;;16.88
43802;BMP280;29429;51.074;13.764;2023-06-19T03:06:15;99726.63;;;16.92
43802;BMP280;29429;51.074;13.764;2023-06-19T03:08:42;99728.00;;;16.94
43802;BMP280;29429;51.074;13.764;2023-06-19T03:11:10;99723.75;;;16.98
43802;BMP280;29429;51.074;13.764;2023-06-19T03:14:04;99718.94;;;17.00
43802;BMP280;29429;51.074;13.764;2023-06-19T03:16:34;99721.69;;;17.05
43802;BMP280;29429;51.074;13.764;2023-06-19T03:19:03;99722.38;;;17.13
43802;BMP280;29429;51.074;13.764;2023-06-19T03:21:31;99723.47;;;17.17
43802;BMP280;29429;51.074;13.764;2023-06-19T03:23:58;99725.75;;;17.25
43802;BMP280;29429;51.074;13.764;2023-06-19T03:26:26;99717.72;;;17.30
43802;BMP280;29429;51.074;13.764;2023-06-19T03:28:57;99724.84;;;17.36
43802;BMP280;29429;51.074;13.764;2023-06-19T03:31:26;99723.31;;;17.45
43802;BMP280;29429;51.074;13.764;2023-06-19T03:33:53;99720.22;;;17.53
43802;BMP280;29429;51.074;13.764;2023-06-19T03:36:22;99721.94;;;17.59
43802;BMP280;29429;51.074;13.764;2023-06-19T03:38:51;99725.00;;;17.68
43802;BMP280;29429;51.074;13.764;2023-06-19T03:41:21;99723.47;;;17.77
43802;BMP280;29429;51.074;13.764;2023-06-19T03:43:49;99723.31;;;17.83
43802;BMP280;29429;51.074;13.764;2023-06-19T03:46:17;99719.59;;;17.89
43802;BMP280;29429;51.074;13.764;2023-06-19T03:48:45;99709.91;;;17.93
43802;BMP280;29429;51.074;13.764;2023-06-19T03:51:13;99707.22;;;17.93
43802;BMP280;29429;51.074;13.764;2023-06-19T03:54:11;99702.31;;;17.90
43802;BMP280;29429;51.074;13.764;2023-06-19T03:56:46;99716.59;;;17.86
43802;BMP280;29429;51.074;13.764;2023-06-19T03:59:13;99714.16;;;17.84
43802;BMP280;29429;51.074;13.764;2023-06-19T04:01:41;99717.91;;;17.83
43802;BMP280;29429;51.074;13.764;2023-06-19T04:04:09;99721.66;;;17.82
43802;BMP280;29429;51.074;13.764;2023-06-19T04:06:39;99721.66;;;17.82
43802;BMP280;29429;51.074;13.764;2023-06-19T04:09:06;99716.03;;;17.84
43802;BMP280;29429;51.074;13.764;2023-06-19T04:11:34;99720.59;;;17.83
43802;BMP280;29429;51.074;13.764;2023-06-19T04:14:02;99724.69;;;17.86
43802;BMP280;29429;51.074;13.764;2023-06-19T04:16:29;99716.31;;;17.87
43802;BMP280;29429;51.074;13.764;2023-06-19T04:18:57;99718.50;;;17.90
43802;BMP280;29429;51.074;13.764;2023-06-19T04:21:25;99706.72;;;17.96
43802;BMP280;29429;51.074;13.764;2023-06-19T04:23:52;99705.13;;;18.00
43802;BMP280;29429;51.074;13.764;2023-06-19T04:26:20;99712.78;;;18.08
43802;BMP280;29429;51.074;13.764;2023-06-19T04:28:48;99722.31;;;18.16
43802;BMP280;29429;51.074;13.764;2023-06-19T04:31:17;99724.34;;;18.31
43802;BMP280;29429;51.074;13.764;2023-06-19T04:33:47;99731.59;;;18.52
43802;BMP280;29429;51.074;13.764;2023-06-19T04:36:15;99720.69;;;18.73
43802;BMP280;29429;51.074;13.764;2023-06-19T04:38:42;99724.38;;;18.94
43802;BMP280;29429;51.074;13.764;2023-06-19T04:41:11;99721.75;;;19.09
43802;BMP280;29429;51.074;13.764;2023-06-19T04:43:38;99724.00;;;19.22
43802;BMP280;29429;51.074;13.764;2023-06-19T04:46:08;99727.84;;;19.31
43802;BMP280;29429;51.074;13.764;2023-06-19T04:48:53;99721.44;;;19.42
43802;BMP280;29429;51.074;13.764;2023-06-19T04:51:23;99713.91;;;19.50
43802;BMP280;29429;51.074;13.764;2023-06-19T04:53:51;99714.47;;;19.57
43802;BMP280;29429;51.074;13.764;2023-06-19T04:56:18;99710.19;;;19.66
43802;BMP280;29429;51.074;13.764;2023-06-19T04:58:46;99719.16;;;19.76
43802;BMP280;29429;51.074;13.764;2023-06-19T05:01:14;99712.41;;;19.84
43802;BMP280;29429;51.074;13.764;2023-06-19T05:03:45;99709.19;;;19.92
43802;BMP280;29429;51.074;13.764;2023-06-19T05:06:15;99711.38;;;19.95
43802;BMP280;29429;51.074;13.764;2023-06-19T05:08:42;99722.19;;;20.00
43802;BMP280;29429;51.074;13.764;2023-06-19T05:11:10;99727.09;;;20.03
43802;BMP280;29429;51.074;13.764;2023-06-19T05:13:37;99728.16;;;20.07
43802;BMP280;29429;51.074;13.764;2023-06-19T05:16:05;99723.88;;;20.11
43802;BMP280;29429;51.074;13.764;2023-06-19T05:18:32;99726.59;;;20.16
43802;BMP280;29429;51.074;13.764;2023-06-19T05:20:59;99724.69;;;20.22
43802;BMP280;29429;51.074;13.764;2023-06-19T05:23:27;99718.25;;;20.28
43802;BMP280;29429;51.074;13.764;2023-06-19T05:25:54;99722.56;;;20.34
43802;BMP280;29429;51.074;13.764;2023-06-19T05:28:22;99725.56;;;20.37
43802;BMP280;29429;51.074;13.764;2023-06-19T05:30:49;99723.13;;;20.41
43802;BMP280;29429;51.074;13.764;2023-06-19T05:33:17;99725.03;;;20.45
43802;BMP280;29429;51.074;13.764;2023-06-19T05:35:44;99723.97;;;20.51
43802;BMP280;29429;51.074;13.764;2023-06-19T05:38:19;99730.19;;;20.57
43802;BMP280;29429;51.074;13.764;2023-06-19T05:40:46;99717.19;;;20.64
43802;BMP280;29429;51.074;13.764;2023-06-19T05:43:14;99717.47;;;20.73
43802;BMP280;29429;51.074;13.764;2023-06-19T05:45:41;99715.28;;;20.80
43802;BMP280;29429;51.074;13.764;2023-06-19T05:48:09;99715.00;;;20.86
43802;BMP280;29429;51.074;13.764;2023-06-19T05:50:36;99725.56;;;20.93
43802;BMP280;29429;51.074;13.764;2023-06-19T05:53:05;99723.38;;;21.00
43802;BMP280;29429;51.074;13.764;2023-06-19T05:55:33;99722.84;;;21.03
43802;BMP280;29429;51.074;13.764;2023-06-19T05:58:03;99722.84;;;21.08
43802;BMP280;29429;51.074;13.764;2023-06-19T06:00:31;99723.13;;;21.11
43802;BMP280;29429;51.074;13.764;2023-06-19T06:03:02;99725.00;;;21.16
43802;BMP280;29429;51.074;13.764;2023-06-19T06:05:30;99725.28;;;21.19
43802;BMP280;29429;51.074;13.764;2023-06-19T06:07:58;99725.56;;;21.23
43802;BMP280;29429;51.074;13.764;2023-06-19T06:10:25;99733.13;;;21.26
43802;BMP280;29429;51.074;13.764;2023-06-19T06:12:53;99729.06;;;21.29
43802;BMP280;29429;51.074;13.764;2023-06-19T06:15:22;99731.22;;;21.32
43802;BMP280;29429;51.074;13.764;2023-06-19T06:17:51;99728.25;;;21.33
43802;BMP280;29429;51.074;13.764;2023-06-19T06:20:18;99739.91;;;21.39
43802;BMP280;29429;51.074;13.764;2023-06-19T06:22:46;99738.25;;;21.43
43802;BMP280;29429;51.074;13.764;2023-06-19T06:25:13;99734.69;;;21.47
43802;BMP280;29429;51.074;13.764;2023-06-19T06:27:41;99733.06;;;21.51
43802;BMP280;29429;51.074;13.764;2023-06-19T06:30:09;99732.75;;;21.58
43802;BMP280;29429;51.074;13.764;2023-06-19T06:32:39;99737.91;;;21.64
43802;BMP280;29429;51.074;13.764;2023-06-19T06:35:07;99740.03;;;21.72
43802;BMP280;29429;51.074;13.764;2023-06-19T06:37:35;99740.56;;;21.79
43802;BMP280;29429;51.074;13.764;2023-06-19T06:40:03;99743.25;;;21.84
43802;BMP280;29429;51.074;13.764;2023-06-19T06:42:35;99744.34;;;21.89
43802;BMP280;29429;51.074;13.764;2023-06-19T06:45:05;99742.97;;;21.91
43802;BMP280;29429;51.074;13.764;2023-06-19T06:47:35;99749.25;;;21.92
43802;BMP280;29429;51.074;13.764;2023-06-19T06:50:02;99745.41;;;21.93
43802;BMP280;29429;51.074;13.764;2023-06-19T06:52:30;99745.66;;;21.96
43802;BMP280;29429;51.074;13.764;2023-06-19T06:55:00;99752.44;;;21.99
43802;BMP280;29429;51.074;13.764;2023-06-19T06:57:28;99752.41;;;22.04
43802;BMP280;29429;51.074;13.764;2023-06-19T06:59:55;99751.84;;;22.12
43802;BMP280;29429;51.074;13.764;2023-06-19T07:02:23;99752.88;;;22.21
43802;BMP280;29429;51.074;13.764;2023-06-19T07:04:51;99747.91;;;22.33
43802;BMP280;29429;51.074;13.764;2023-06-19T07:07:19;99746.75;;;22.44
43802;BMP280;29429;51.074;13.764;2023-06-19T07:09:47;99749.66;;;22.58
43802;BMP280;29429;51.074;13.764;2023-06-19T07:12:15;99749.03;;;22.71
43802;BMP280;29429;51.074;13.764;2023-06-19T07:14:42;99749.72;;;22.86
43802;BMP280;29429;51.074;13.764;2023-06-19T07:17:10;99739.81;;;23.00
43802;BMP280;29429;51.074;13.764;2023-06-19T07:19:40;99738.00;;;23.15
43802;BMP280;29429;51.074;13.764;2023-06-19T07:22:07;99733.78;;;23.27
43802;BMP280;29429;51.074;13.764;2023-06-19T07:24:35;99747.56;;;23.41
43802;BMP280;29429;51.074;13.764;2023-06-19T07:27:03;99752.03;;;23.55
43802;BMP280;29429;51.074;13.764;2023-06-19T07:29:30;99745.59;;;23.70
43802;BMP280;29429;51.074;13.764;2023-06-19T07:31:58;99744.88;;;23.83
43802;BMP280;29429;51.074;13.764;2023-06-19T07:34:28;99743.06;;;23.97
43802;BMP280;29429;51.074;13.764;2023-06-19T07:36:55;99740.75;;;24.09
43802;BMP280;29429;51.074;13.764;2023-06-19T07:39:24;99745.47;;;24.22
43802;BMP280;29429;51.074;13.764;2023-06-19T07:41:51;99747.19;;;24.37
43802;BMP280;29429;51.074;13.764;2023-06-19T07:44:19;99744.44;;;24.56
43802;BMP280;29429;51.074;13.764;2023-06-19T07:46:48;99746.84;;;24.76
43802;BMP280;29429;51.074;13.764;2023-06-19T07:49:15;99732.66;;;24.93
43802;BMP280;29429;51.074;13.764;2023-06-19T07:51:43;99743.13;;;25.04
43802;BMP280;29429;51.074;13.764;2023-06-19T07:54:10;99748.50;;;25.09
43802;BMP280;29429;51.074;13.764;2023-06-19T07:56:37;99736.97;;;25.12
43802;BMP280;29429;51.074;13.764;2023-06-19T07:59:05;99735.84;;;25.13
43802;BMP280;29429;51.074;13.764;2023-06-19T08:01:35;99740.50;;;25.13
43802;BMP280;29429;51.074;13.764;2023-06-19T08:04:03;99745.06;;;25.17
43802;BMP280;29429;51.074;13.764;2023-06-19T08:06:30;99741.66;;;25.25
43802;BMP280;29429;51.074;13.764;2023-06-19T08:08:58;99746.91;;;25.35
43802;BMP280;29429;51.074;13.764;2023-06-19T08:11:26;99742.09;;;25.46
43802;BMP280;29429;51.074;13.764;2023-06-19T08:13:53;99742.72;;;25.57
43802;BMP280;29429;51.074;13.764;2023-06-19T08:16:21;99744.13;;;25.68
43802;BMP280;29429;51.074;13.764;2023-06-19T08:18:49;99745.03;;;25.77
43802;BMP280;29429;51.074;13.764;2023-06-19T08:21:16;99745.13;;;25.85
43802;BMP280;29429;51.074;13.764;2023-06-19T08:23:44;99743.09;;;25.91
43802;BMP280;29429;51.074;13.764;2023-06-19T08:26:11;99745.72;;;25.96
43802;BMP280;29429;51.074;13.764;2023-06-19T08:28:39;99751.69;;;25.98
43802;BMP280;29429;51.074;13.764;2023-06-19T08:31:09;99747.84;;;25.99
43802;BMP280;29429;51.074;13.764;2023-06-19T08:33:36;99748.13;;;25.97
43802;BMP280;29429;51.074;13.764;2023-06-19T08:36:04;99758.88;;;25.94
43802;BMP280;29429;51.074;13.764;2023-06-19T08:38:32;99752.41;;;25.90
43802;BMP280;29429;51.074;13.764;2023-06-19T08:41:00;99756.88;;;25.86
43802;BMP280;29429;51.074;13.764;2023-06-19T08:43:28;99752.63;;;25.80
43802;BMP280;29429;51.074;13.764;2023-06-19T08:46:08;99752.81;;;25.70
43802;BMP280;29429;51.074;13.764;2023-06-19T08:48:37;99748.66;;;25.59
43802;BMP280;29429;51.074;13.764;2023-06-19T08:51:05;99751.59;;;25.49
43802;BMP280;29429;51.074;13.764;2023-06-19T08:53:43;99755.00;;;25.40
43802;BMP280;29429;51.074;13.764;2023-06-19T08:56:11;99746.41;;;25.33
43802;BMP280;29429;51.074;13.764;2023-06-19T08:58:39;99756.81;;;25.31
43802;BMP280;29429;51.074;13.764;2023-06-19T09:01:06;99754.06;;;25.31
43802;BMP280;29429;51.074;13.764;2023-06-19T09:03:34;99760.06;;;25.33
43802;BMP280;29429;51.074;13.764;2023-06-19T09:06:07;99757.03;;;25.35
43802;BMP280;29429;51.074;13.764;2023-06-19T09:08:37;99764.91;;;25.36
43802;BMP280;29429;51.074;13.764;2023-06-19T09:11:05;99760.75;;;25.39
43802;BMP280;29429;51.074;13.764;2023-06-19T09:13:37;99766.44;;;25.42
43802;BMP280;29429;51.074;13.764;2023-06-19T09:16:08;99764.78;;;25.47
43802;BMP280;29429;51.074;13.764;2023-06-19T09:18:46;99758.59;;;25.55
43802;BMP280;29429;51.074;13.764;2023-06-19T09:21:18;99765.06;;;25.59
43802;BMP280;29429;51.074;13.764;2023-06-19T09:23:46;99751.81;;;25.66
43802;BMP280;29429;51.074;13.764;2023-06-19T09:26:15;99757.16;;;25.71
43802;BMP280;29429;51.074;13.764;2023-06-19T09:28:43;99756.06;;;25.72
43802;BMP280;29429;51.074;13.764;2023-06-19T09:31:11;99758.28;;;25.70
43802;BMP280;29429;51.074;13.764;2023-06-19T09:33:40;99758.91;;;25.67
43802;BMP280;29429;51.074;13.764;2023-06-19T09:36:08;99757.59;;;25.64
43802;BMP280;29429;51.074;13.764;2023-06-19T09:38:37;99755.16;;;25.63
43802;BMP280;29429;51.074;13.764;2023-06-19T09:41:08;99756.56;;;25.60
43802;BMP280;29429;51.074;13.764;2023-06-19T09:43:38;99764.75;;;25.60
43802;BMP280;29429;51.074;13.764;2023-06-19T09:46:06;99756.88;;;25.59
43802;BMP280;29429;51.074;13.764;2023-06-19T09:48:35;99762.34;;;25.59
43802;BMP280;29429;51.074;13.764;2023-06-19T09:51:31;99758.28;;;25.56
43802;BMP280;29429;51.074;13.764;2023-06-19T09:54:00;99762.94;;;25.56
43802;BMP280;29429;51.074;13.764;2023-06-19T09:56:29;99751.72;;;25.57
43802;BMP280;29429;51.074;13.764;2023-06-19T09:58:59;99751.72;;;25.57
43802;BMP280;29429;51.074;13.764;2023-06-19T10:01:31;99756.97;;;25.54
43802;BMP280;29429;51.074;13.764;2023-06-19T10:04:07;99756.47;;;25.52
43802;BMP280;29429;51.074;13.764;2023-06-19T10:06:48;99753.84;;;25.47
43802;BMP280;29429;51.074;13.764;2023-06-19T10:09:16;99752.78;;;25.42
43802;BMP280;29429;51.074;13.764;2023-06-19T10:11:48;99750.88;;;25.43
43802;BMP280;29429;51.074;13.764;2023-06-19T10:14:20;99751.59;;;25.49
43802;BMP280;29429;51.074;13.764;2023-06-19T10:16:48;99752.00;;;25.56
43802;BMP280;29429;51.074;13.764;2023-06-19T10:19:17;99753.09;;;25.68
43802;BMP280;29429;51.074;13.764;2023-06-19T10:21:46;99757.69;;;25.86
43802;BMP280;29429;51.074;13.764;2023-06-19T10:24:18;99739.53;;;26.04
43802;BMP280;29429;51.074;13.764;2023-06-19T10:27:00;99748.56;;;26.18
43802;BMP280;29429;51.074;13.764;2023-06-19T10:29:41;99743.84;;;26.32
43802;BMP280;29429;51.074;13.764;2023-06-19T10:32:19;99745.22;;;26.43
43802;BMP280;29429;51.074;13.764;2023-06-19T10:34:48;99748.53;;;26.54
43802;BMP280;29429;51.074;13.764;2023-06-19T10:37:20;99736.03;;;26.61
43802;BMP280;29429;51.074;13.764;2023-06-19T10:39:58;99738.50;;;26.72
43802;BMP280;29429;51.074;13.764;2023-06-19T10:42:26;99733.31;;;26.84
43802;BMP280;29429;51.074;13.764;2023-06-19T10:45:02;99736.47;;;26.99
43802;BMP280;29429;51.074;13.764;2023-06-19T10:47:29;99717.91;;;27.18
43802;BMP280;29429;51.074;13.764;2023-06-19T10:49:57;99710.13;;;27.43
43802;BMP280;29429;51.074;13.764;2023-06-19T10:52:25;99711.31;;;27.67
43802;BMP280;29429;51.074;13.764;2023-06-19T10:54:55;99700.09;;;27.95
43802;BMP280;29429;51.074;13.764;2023-06-19T10:57:32;99704.50;;;28.13
43802;BMP280;29429;51.074;13.764;2023-06-19T10:59:59;99704.69;;;28.25
43802;BMP280;29429;51.074;13.764;2023-06-19T11:02:27;99708.69;;;28.36
43802;BMP280;29429;51.074;13.764;2023-06-19T11:04:58;99708.53;;;28.50
43802;BMP280;29429;51.074;13.764;2023-06-19T11:07:27;99707.41;;;28.59
43802;BMP280;29429;51.074;13.764;2023-06-19T11:09:55;99706.94;;;28.66
43802;BMP280;29429;51.074;13.764;2023-06-19T11:12:22;99711.63;;;28.74
43802;BMP280;29429;51.074;13.764;2023-06-19T11:14:50;99714.34;;;28.82
43802;BMP280;29429;51.074;13.764;2023-06-19T11:17:18;99709.81;;;28.86
43802;BMP280;29429;51.074;13.764;2023-06-19T11:19:49;99714.66;;;28.89
43802;BMP280;29429;51.074;13.764;2023-06-19T11:22:17;99718.53;;;28.88
43802;BMP280;29429;51.074;13.764;2023-06-19T11:24:45;99707.88;;;28.87
43802;BMP280;29429;51.074;13.764;2023-06-19T11:27:21;99713.00;;;28.97
43802;BMP280;29429;51.074;13.764;2023-06-19T11:29:58;99704.13;;;29.00
43802;BMP280;29429;51.074;13.764;2023-06-19T11:32:34;99707.66;;;29.09
43802;BMP280;29429;51.074;13.764;2023-06-19T11:35:10;99702.09;;;29.18
43802;BMP280;29429;51.074;13.764;2023-06-19T11:37:42;99698.56;;;29.26
43802;BMP280;29429;51.074;13.764;2023-06-19T11:40:12;99690.81;;;29.28
43802;BMP280;29429;51.074;13.764;2023-06-19T11:42:46;99682.69;;;29.31
43802;BMP280;29429;51.074;13.764;2023-06-19T11:45:18;99679.75;;;29.36
43802;BMP280;29429;51.074;13.764;2023-06-19T11:47:46;99687.97;;;29.45
43802;BMP280;29429;51.074;13.764;2023-06-19T11:50:16;99671.78;;;29.52
43802;BMP280;29429;51.074;13.764;2023-06-19T11:52:44;99673.31;;;29.62
43802;BMP280;29429;51.074;13.764;2023-06-19T11:55:14;99673.88;;;29.76
43802;BMP280;29429;51.074;13.764;2023-06-19T11:57:43;99676.88;;;29.91
43802;BMP280;29429;51.074;13.764;2023-06-19T12:00:17;99676.75;;;30.08
43802;BMP280;29429;51.074;13.764;2023-06-19T12:02:45;99681.97;;;30.01
43802;BMP280;29429;51.074;13.764;2023-06-19T12:05:16;99670.97;;;30.22
43802;BMP280;29429;51.074;13.764;2023-06-19T12:07:44;99668.69;;;30.45
43802;BMP280;29429;51.074;13.764;2023-06-19T12:10:12;99666.13;;;30.60
43802;BMP280;29429;51.074;13.764;2023-06-19T12:12:39;99664.28;;;30.76
43802;BMP280;29429;51.074;13.764;2023-06-19T12:15:12;99645.88;;;30.89
43802;BMP280;29429;51.074;13.764;2023-06-19T12:17:39;99655.19;;;30.97
43802;BMP280;29429;51.074;13.764;2023-06-19T12:20:07;99655.56;;;31.07
43802;BMP280;29429;51.074;13.764;2023-06-19T12:22:36;99644.31;;;31.12
43802;BMP280;29429;51.074;13.764;2023-06-19T12:25:03;99638.25;;;31.19
43802;BMP280;29429;51.074;13.764;2023-06-19T12:27:31;99639.38;;;31.30
43802;BMP280;29429;51.074;13.764;2023-06-19T12:30:00;99642.13;;;31.42
43802;BMP280;29429;51.074;13.764;2023-06-19T12:32:28;99648.69;;;31.50
43802;BMP280;29429;51.074;13.764;2023-06-19T12:34:55;99648.91;;;31.57
43802;BMP280;29429;51.074;13.764;2023-06-19T12:37:23;99646.16;;;31.69
43802;BMP280;29429;51.074;13.764;2023-06-19T12:39:51;99642.47;;;31.77
43802;BMP280;29429;51.074;13.764;2023-06-19T12:42:18;99642.91;;;31.79
43802;BMP280;29429;51.074;13.764;2023-06-19T12:44:46;99643.38;;;31.81
43802;BMP280;29429;51.074;13.764;2023-06-19T12:47:14;99632.69;;;31.67
43802;BMP280;29429;51.074;13.764;2023-06-19T12:49:44;99636.63;;;31.54
43802;BMP280;29429;51.074;13.764;2023-06-19T12:52:11;99632.84;;;31.47
43802;BMP280;29429;51.074;13.764;2023-06-19T12:54:38;99629.59;;;31.45
43802;BMP280;29429;51.074;13.764;2023-06-19T12:57:09;99622.03;;;31.54
43802;BMP280;29429;51.074;13.764;2023-06-19T12:59:36;99627.88;;;31.64
43802;BMP280;29429;51.074;13.764;2023-06-19T13:02:04;99616.94;;;31.68
43802;BMP280;29429;51.074;13.764;2023-06-19T13:04:31;99623.28;;;31.68
43802;BMP280;29429;51.074;13.764;2023-06-19T13:06:59;99625.59;;;31.66
43802;BMP280;29429;51.074;13.764;2023-06-19T13:09:26;99626.84;;;31.69
43802;BMP280;29429;51.074;13.764;2023-06-19T13:11:54;99620.63;;;31.72
43802;BMP280;29429;51.074;13.764;2023-06-19T13:14:21;99624.28;;;31.76
43802;BMP280;29429;51.074;13.764;2023-06-19T13:16:49;99622.09;;;31.81
43802;BMP280;29429;51.074;13.764;2023-06-19T13:19:16;99617.38;;;31.82
43802;BMP280;29429;51.074;13.764;2023-06-19T13:21:44;99614.63;;;31.82
43802;BMP280;29429;51.074;13.764;2023-06-19T13:24:11;99611.06;;;31.81
43802;BMP280;29429;51.074;13.764;2023-06-19T13:26:40;99608.63;;;31.80
43802;BMP280;29429;51.074;13.764;2023-06-19T13:29:07;99611.31;;;31.76
43802;BMP280;29429;51.074;13.764;2023-06-19T13:31:35;99608.88;;;31.75
43802;BMP280;29429;51.074;13.764;2023-06-19T13:34:03;99602.78;;;31.81
43802;BMP280;29429;51.074;13.764;2023-06-19T13:36:31;99605.66;;;31.85
43802;BMP280;29429;51.074;13.764;2023-06-19T13:38:58;99598.00;;;31.94
43802;BMP280;29429;51.074;13.764;2023-06-19T13:41:26;99603.06;;;32.04
43802;BMP280;29429;51.074;13.764;2023-06-19T13:43:55;99595.34;;;32.10
43802;BMP280;29429;51.074;13.764;2023-06-19T13:46:23;99597.50;;;32.16
43802;BMP280;29429;51.074;13.764;2023-06-19T13:48:57;99601.16;;;32.20
43802;BMP280;29429;51.074;13.764;2023-06-19T13:51:43;99600.28;;;32.16
43802;BMP280;29429;51.074;13.764;2023-06-19T13:54:12;99593.94;;;32.16
43802;BMP280;29429;51.074;13.764;2023-06-19T13:56:41;99597.84;;;32.15
43802;BMP280;29429;51.074;13.764;2023-06-19T13:59:09;99599.00;;;32.14
43802;BMP280;29429;51.074;13.764;2023-06-19T14:01:36;99593.03;;;32.12
43802;BMP280;29429;51.074;13.764;2023-06-19T14:04:04;99594.53;;;32.09
43802;BMP280;29429;51.074;13.764;2023-06-19T14:06:31;99592.59;;;31.98